sensor_id;sensor_type;location;lat;lon;timestamp;P1;durP1;ratioP1;P2;durP2;ratioP2
41572;SDS011;27286;47.870;19.006;2022-11-03T00:00:29;3.50;;;1.95;;
41572;SDS011;27286;47.870;19.006;2022-11-03T00:02:55;6.68;;;1.85;;
41572;SDS011;27286;47.870;19.006;2022-11-03T00:05:20;2.83;;;1.55;;
41572;SDS011;27286;47.870;19.006;2022-11-03T00:08:04;4.43;;;1.60;;
41572;SDS011;27286;47.870;19.006;2022-11-03T00:10:30;3.60;;;1.50;;
41572;SDS011;27286;47.870;19.006;2022-11-03T00:12:55;2.88;;;1.50;;
41572;SDS011;27286;47.870;19.006;2022-11-03T00:15:21;5.00;;;1.40;;
41572;SDS011;27286;47.870;19.006;2022-11-03T00:17:46;4.47;;;1.35;;
41572;SDS011;27286;47.870;19.006;2022-11-03T00:20:12;3.80;;;1.23;;
41572;SDS011;27286;47.870;19.006;2022-11-03T00:22:37;4.63;;;1.55;;
41572;SDS011;27286;47.870;19.006;2022-11-03T00:25:03;7.25;;;1.50;;
41572;SDS011;27286;47.870;19.006;2022-11-03T00:27:28;4.25;;;1.33;;
41572;SDS011;27286;47.870;19.006;2022-11-03T00:29:54;2.83;;;0.85;;
41572;SDS011;27286;47.870;19.006;2022-11-03T00:32:19;3.17;;;0.88;;
41572;SDS011;27286;47.870;19.006;2022-11-03T00:34:45;7.00;;;1.35;;
41572;SDS011;27286;47.870;19.006;2022-11-03T00:37:10;3.22;;;1.00;;
41572;SDS011;27286;47.870;19.006;2022-11-03T00:39:35;2.92;;;1.20;;
41572;SDS011;27286;47.870;19.006;2022-11-03T00:42:01;1.58;;;0.60;;
41572;SDS011;27286;47.870;19.006;2022-11-03T00:44:26;3.50;;;0.80;;
41572;SDS011;27286;47.870;19.006;2022-11-03T00:46:51;3.28;;;0.75;;
41572;SDS011;27286;47.870;19.006;2022-11-03T00:49:17;5.95;;;0.70;;
41572;SDS011;27286;47.870;19.006;2022-11-03T00:51:42;1.95;;;0.63;;
41572;SDS011;27286;47.870;19.006;2022-11-03T00:54:08;3.25;;;0.70;;
41572;SDS011;27286;47.870;19.006;2022-11-03T00:56:34;2.58;;;0.65;;
41572;SDS011;27286;47.870;19.006;2022-11-03T00:59:02;3.15;;;0.85;;
41572;SDS011;27286;47.870;19.006;2022-11-03T01:01:30;3.90;;;0.68;;
41572;SDS011;27286;47.870;19.006;2022-11-03T01:03:59;4.20;;;0.68;;
41572;SDS011;27286;47.870;19.006;2022-11-03T01:06:45;2.70;;;0.55;;
41572;SDS011;27286;47.870;19.006;2022-11-03T01:14:20;6.85;;;0.60;;
41572;SDS011;27286;47.870;19.006;2022-11-03T01:16:46;3.58;;;0.65;;
41572;SDS011;27286;47.870;19.006;2022-11-03T01:19:11;1.95;;;0.70;;
41572;SDS011;27286;47.870;19.006;2022-11-03T01:21:36;3.80;;;0.93;;
41572;SDS011;27286;47.870;19.006;2022-11-03T01:24:02;3.95;;;1.23;;
41572;SDS011;27286;47.870;19.006;2022-11-03T01:26:28;4.68;;;1.73;;
41572;SDS011;27286;47.870;19.006;2022-11-03T01:28:54;5.65;;;1.77;;
41572;SDS011;27286;47.870;19.006;2022-11-03T01:31:22;4.13;;;1.38;;
41572;SDS011;27286;47.870;19.006;2022-11-03T01:33:49;4.72;;;1.10;;
41572;SDS011;27286;47.870;19.006;2022-11-03T01:36:15;3.70;;;0.95;;
41572;SDS011;27286;47.870;19.006;2022-11-03T01:38:42;3.42;;;1.48;;
41572;SDS011;27286;47.870;19.006;2022-11-03T01:41:09;7.10;;;1.15;;
41572;SDS011;27286;47.870;19.006;2022-11-03T01:43:41;4.35;;;1.23;;
41572;SDS011;27286;47.870;19.006;2022-11-03T01:48:35;2.05;;;1.15;;
41572;SDS011;27286;47.870;19.006;2022-11-03T01:51:05;4.53;;;1.30;;
41572;SDS011;27286;47.870;19.006;2022-11-03T01:53:32;3.88;;;1.35;;
41572;SDS011;27286;47.870;19.006;2022-11-03T01:55:59;3.25;;;1.02;;
41572;SDS011;27286;47.870;19.006;2022-11-03T01:58:30;4.38;;;1.30;;
41572;SDS011;27286;47.870;19.006;2022-11-03T02:00:58;2.38;;;0.82;;
41572;SDS011;27286;47.870;19.006;2022-11-03T02:03:26;7.05;;;1.20;;
41572;SDS011;27286;47.870;19.006;2022-11-03T02:05:55;3.70;;;0.85;;
41572;SDS011;27286;47.870;19.006;2022-11-03T02:08:30;2.28;;;0.80;;
41572;SDS011;27286;47.870;19.006;2022-11-03T02:11:08;6.25;;;1.92;;
41572;SDS011;27286;47.870;19.006;2022-11-03T02:13:51;4.43;;;2.25;;
41572;SDS011;27286;47.870;19.006;2022-11-03T02:16:18;10.38;;;2.38;;
41572;SDS011;27286;47.870;19.006;2022-11-03T02:18:46;8.13;;;1.73;;
41572;SDS011;27286;47.870;19.006;2022-11-03T02:21:20;6.25;;;1.45;;
41572;SDS011;27286;47.870;19.006;2022-11-03T02:24:02;3.90;;;1.83;;
41572;SDS011;27286;47.870;19.006;2022-11-03T02:26:36;7.50;;;3.17;;
41572;SDS011;27286;47.870;19.006;2022-11-03T02:29:02;6.03;;;3.15;;
41572;SDS011;27286;47.870;19.006;2022-11-03T02:31:29;7.80;;;3.20;;
41572;SDS011;27286;47.870;19.006;2022-11-03T02:34:05;9.63;;;2.60;;
41572;SDS011;27286;47.870;19.006;2022-11-03T02:41:47;9.35;;;2.38;;
41572;SDS011;27286;47.870;19.006;2022-11-03T02:44:15;5.68;;;1.92;;
41572;SDS011;27286;47.870;19.006;2022-11-03T02:46:44;7.35;;;1.83;;
41572;SDS011;27286;47.870;19.006;2022-11-03T02:49:11;4.57;;;1.80;;
41572;SDS011;27286;47.870;19.006;2022-11-03T02:51:37;5.43;;;1.90;;
41572;SDS011;27286;47.870;19.006;2022-11-03T02:56:33;3.85;;;1.45;;
41572;SDS011;27286;47.870;19.006;2022-11-03T02:59:05;4.72;;;1.70;;
41572;SDS011;27286;47.870;19.006;2022-11-03T03:01:39;4.85;;;1.35;;
41572;SDS011;27286;47.870;19.006;2022-11-03T03:04:12;5.30;;;1.23;;
41572;SDS011;27286;47.870;19.006;2022-11-03T03:06:56;5.25;;;1.50;;
41572;SDS011;27286;47.870;19.006;2022-11-03T03:09:31;5.47;;;1.52;;
41572;SDS011;27286;47.870;19.006;2022-11-03T03:12:04;4.55;;;2.20;;
41572;SDS011;27286;47.870;19.006;2022-11-03T03:14:39;4.68;;;1.42;;
41572;SDS011;27286;47.870;19.006;2022-11-03T03:17:21;4.10;;;0.77;;
41572;SDS011;27286;47.870;19.006;2022-11-03T03:19:58;4.40;;;0.88;;
41572;SDS011;27286;47.870;19.006;2022-11-03T03:22:31;3.53;;;1.20;;
41572;SDS011;27286;47.870;19.006;2022-11-03T03:25:12;3.10;;;1.30;;
41572;SDS011;27286;47.870;19.006;2022-11-03T03:27:51;3.13;;;1.08;;
41572;SDS011;27286;47.870;19.006;2022-11-03T03:30:22;4.45;;;1.58;;
41572;SDS011;27286;47.870;19.006;2022-11-03T03:32:48;1.50;;;0.73;;
41572;SDS011;27286;47.870;19.006;2022-11-03T03:35:19;3.70;;;1.05;;
41572;SDS011;27286;47.870;19.006;2022-11-03T03:37:49;3.20;;;1.02;;
41572;SDS011;27286;47.870;19.006;2022-11-03T03:40:19;3.17;;;0.82;;
41572;SDS011;27286;47.870;19.006;2022-11-03T03:42:49;6.30;;;0.60;;
41572;SDS011;27286;47.870;19.006;2022-11-03T03:45:17;2.67;;;0.50;;
41572;SDS011;27286;47.870;19.006;2022-11-03T03:47:44;3.17;;;0.80;;
41572;SDS011;27286;47.870;19.006;2022-11-03T03:50:10;2.70;;;0.82;;
41572;SDS011;27286;47.870;19.006;2022-11-03T03:52:35;2.95;;;0.50;;
41572;SDS011;27286;47.870;19.006;2022-11-03T03:55:02;3.88;;;0.70;;
41572;SDS011;27286;47.870;19.006;2022-11-03T03:57:29;2.05;;;0.60;;
41572;SDS011;27286;47.870;19.006;2022-11-03T03:59:55;3.53;;;0.50;;
41572;SDS011;27286;47.870;19.006;2022-11-03T04:02:22;2.35;;;0.30;;
41572;SDS011;27286;47.870;19.006;2022-11-03T04:04:47;3.83;;;0.40;;
41572;SDS011;27286;47.870;19.006;2022-11-03T04:07:12;1.50;;;0.40;;
41572;SDS011;27286;47.870;19.006;2022-11-03T04:09:57;0.73;;;0.20;;
41572;SDS011;27286;47.870;19.006;2022-11-03T04:12:22;4.82;;;0.40;;
41572;SDS011;27286;47.870;19.006;2022-11-03T04:15:07;4.35;;;0.45;;
41572;SDS011;27286;47.870;19.006;2022-11-03T04:17:54;2.95;;;0.30;;
41572;SDS011;27286;47.870;19.006;2022-11-03T04:20:38;2.15;;;0.38;;
41572;SDS011;27286;47.870;19.006;2022-11-03T04:23:22;3.33;;;1.30;;
41572;SDS011;27286;47.870;19.006;2022-11-03T04:25:49;4.65;;;0.88;;
41572;SDS011;27286;47.870;19.006;2022-11-03T04:28:16;3.90;;;0.98;;
41572;SDS011;27286;47.870;19.006;2022-11-03T04:30:41;2.25;;;0.52;;
41572;SDS011;27286;47.870;19.006;2022-11-03T04:33:14;2.22;;;0.65;;
41572;SDS011;27286;47.870;19.006;2022-11-03T04:35:42;5.45;;;0.60;;
41572;SDS011;27286;47.870;19.006;2022-11-03T04:40:40;4.63;;;0.30;;
41572;SDS011;27286;47.870;19.006;2022-11-03T04:43:14;1.77;;;0.30;;
41572;SDS011;27286;47.870;19.006;2022-11-03T04:45:46;3.10;;;0.55;;
41572;SDS011;27286;47.870;19.006;2022-11-03T04:48:22;1.67;;;0.45;;
41572;SDS011;27286;47.870;19.006;2022-11-03T04:50:51;4.05;;;0.65;;
41572;SDS011;27286;47.870;19.006;2022-11-03T04:53:19;3.17;;;0.50;;
41572;SDS011;27286;47.870;19.006;2022-11-03T04:55:46;1.85;;;0.50;;
41572;SDS011;27286;47.870;19.006;2022-11-03T04:58:27;1.95;;;0.40;;
41572;SDS011;27286;47.870;19.006;2022-11-03T05:01:02;5.80;;;1.85;;
41572;SDS011;27286;47.870;19.006;2022-11-03T05:03:29;3.42;;;0.30;;
41572;SDS011;27286;47.870;19.006;2022-11-03T05:06:00;1.80;;;0.30;;
41572;SDS011;27286;47.870;19.006;2022-11-03T05:10:59;2.63;;;0.40;;
41572;SDS011;27286;47.870;19.006;2022-11-03T05:13:24;2.08;;;0.43;;
41572;SDS011;27286;47.870;19.006;2022-11-03T05:16:01;3.97;;;0.45;;
41572;SDS011;27286;47.870;19.006;2022-11-03T05:18:32;1.42;;;0.47;;
41572;SDS011;27286;47.870;19.006;2022-11-03T05:21:05;2.25;;;0.28;;
41572;SDS011;27286;47.870;19.006;2022-11-03T05:23:37;4.03;;;0.40;;
41572;SDS011;27286;47.870;19.006;2022-11-03T05:26:06;4.43;;;0.50;;
41572;SDS011;27286;47.870;19.006;2022-11-03T05:28:38;4.28;;;0.82;;
41572;SDS011;27286;47.870;19.006;2022-11-03T05:33:53;11.50;;;3.22;;
41572;SDS011;27286;47.870;19.006;2022-11-03T05:36:22;6.50;;;2.70;;
41572;SDS011;27286;47.870;19.006;2022-11-03T05:38:50;5.75;;;2.30;;
41572;SDS011;27286;47.870;19.006;2022-11-03T05:41:21;4.85;;;1.88;;
41572;SDS011;27286;47.870;19.006;2022-11-03T05:44:02;7.72;;;2.45;;
41572;SDS011;27286;47.870;19.006;2022-11-03T05:46:48;7.75;;;2.03;;
41572;SDS011;27286;47.870;19.006;2022-11-03T05:49:13;8.90;;;3.10;;
41572;SDS011;27286;47.870;19.006;2022-11-03T05:51:39;9.20;;;4.43;;
41572;SDS011;27286;47.870;19.006;2022-11-03T05:54:21;8.57;;;3.80;;
41572;SDS011;27286;47.870;19.006;2022-11-03T05:56:48;8.27;;;3.95;;
41572;SDS011;27286;47.870;19.006;2022-11-03T05:59:16;6.55;;;3.17;;
41572;SDS011;27286;47.870;19.006;2022-11-03T06:01:46;8.75;;;3.42;;
41572;SDS011;27286;47.870;19.006;2022-11-03T06:06:49;9.63;;;6.15;;
41572;SDS011;27286;47.870;19.006;2022-11-03T06:09:20;10.00;;;5.05;;
41572;SDS011;27286;47.870;19.006;2022-11-03T06:11:49;8.75;;;5.30;;
41572;SDS011;27286;47.870;19.006;2022-11-03T06:14:21;9.30;;;4.47;;
41572;SDS011;27286;47.870;19.006;2022-11-03T06:19:44;26.40;;;15.23;;
41572;SDS011;27286;47.870;19.006;2022-11-03T06:24:48;154.85;;;78.53;;
41572;SDS011;27286;47.870;19.006;2022-11-03T06:27:15;79.60;;;43.28;;
41572;SDS011;27286;47.870;19.006;2022-11-03T06:29:46;44.28;;;26.55;;
41572;SDS011;27286;47.870;19.006;2022-11-03T06:32:14;24.48;;;13.95;;
41572;SDS011;27286;47.870;19.006;2022-11-03T06:34:46;11.60;;;6.05;;
41572;SDS011;27286;47.870;19.006;2022-11-03T06:37:18;10.40;;;4.73;;
41572;SDS011;27286;47.870;19.006;2022-11-03T06:39:46;7.90;;;4.35;;
41572;SDS011;27286;47.870;19.006;2022-11-03T06:42:16;11.00;;;5.03;;
41572;SDS011;27286;47.870;19.006;2022-11-03T06:44:45;10.68;;;4.07;;
41572;SDS011;27286;47.870;19.006;2022-11-03T06:47:19;8.52;;;4.45;;
41572;SDS011;27286;47.870;19.006;2022-11-03T06:49:47;10.13;;;3.15;;
41572;SDS011;27286;47.870;19.006;2022-11-03T06:57:37;5.32;;;2.65;;
41572;SDS011;27286;47.870;19.006;2022-11-03T07:00:38;5.45;;;3.00;;
41572;SDS011;27286;47.870;19.006;2022-11-03T07:05:34;5.68;;;2.28;;
41572;SDS011;27286;47.870;19.006;2022-11-03T07:08:12;4.28;;;2.15;;
41572;SDS011;27286;47.870;19.006;2022-11-03T07:10:38;7.63;;;2.60;;
41572;SDS011;27286;47.870;19.006;2022-11-03T07:13:13;4.47;;;2.33;;
41572;SDS011;27286;47.870;19.006;2022-11-03T07:15:43;8.68;;;2.42;;
41572;SDS011;27286;47.870;19.006;2022-11-03T07:18:17;7.53;;;2.00;;
41572;SDS011;27286;47.870;19.006;2022-11-03T07:20:46;5.18;;;1.85;;
41572;SDS011;27286;47.870;19.006;2022-11-03T07:23:14;3.83;;;1.75;;
41572;SDS011;27286;47.870;19.006;2022-11-03T07:25:44;8.90;;;2.30;;
41572;SDS011;27286;47.870;19.006;2022-11-03T07:28:17;9.07;;;1.92;;
41572;SDS011;27286;47.870;19.006;2022-11-03T07:30:42;5.20;;;1.88;;
41572;SDS011;27286;47.870;19.006;2022-11-03T07:33:10;7.32;;;1.65;;
41572;SDS011;27286;47.870;19.006;2022-11-03T07:35:40;3.30;;;1.40;;
41572;SDS011;27286;47.870;19.006;2022-11-03T07:38:15;8.65;;;2.08;;
41572;SDS011;27286;47.870;19.006;2022-11-03T07:43:21;6.03;;;1.58;;
41572;SDS011;27286;47.870;19.006;2022-11-03T07:45:49;6.18;;;1.85;;
41572;SDS011;27286;47.870;19.006;2022-11-03T07:51:05;6.50;;;1.27;;
41572;SDS011;27286;47.870;19.006;2022-11-03T07:59:22;3.70;;;1.45;;
41572;SDS011;27286;47.870;19.006;2022-11-03T08:01:49;9.00;;;1.55;;
41572;SDS011;27286;47.870;19.006;2022-11-03T08:04:20;3.72;;;1.40;;
41572;SDS011;27286;47.870;19.006;2022-11-03T08:06:46;3.28;;;1.30;;
41572;SDS011;27286;47.870;19.006;2022-11-03T08:09:12;4.47;;;1.30;;
41572;SDS011;27286;47.870;19.006;2022-11-03T08:11:38;7.55;;;1.90;;
41572;SDS011;27286;47.870;19.006;2022-11-03T08:14:03;5.63;;;1.70;;
41572;SDS011;27286;47.870;19.006;2022-11-03T08:16:29;3.80;;;1.38;;
41572;SDS011;27286;47.870;19.006;2022-11-03T08:18:54;4.15;;;1.75;;
41572;SDS011;27286;47.870;19.006;2022-11-03T08:21:19;4.72;;;1.42;;
41572;SDS011;27286;47.870;19.006;2022-11-03T08:23:45;4.45;;;1.75;;
41572;SDS011;27286;47.870;19.006;2022-11-03T08:26:10;5.35;;;1.95;;
41572;SDS011;27286;47.870;19.006;2022-11-03T08:28:36;3.67;;;1.70;;
41572;SDS011;27286;47.870;19.006;2022-11-03T08:31:01;4.40;;;1.70;;
41572;SDS011;27286;47.870;19.006;2022-11-03T08:33:32;6.63;;;1.85;;
41572;SDS011;27286;47.870;19.006;2022-11-03T08:35:58;3.85;;;1.90;;
41572;SDS011;27286;47.870;19.006;2022-11-03T08:38:24;6.18;;;1.92;;
41572;SDS011;27286;47.870;19.006;2022-11-03T08:40:50;12.45;;;2.15;;
41572;SDS011;27286;47.870;19.006;2022-11-03T08:43:15;4.47;;;1.70;;
41572;SDS011;27286;47.870;19.006;2022-11-03T08:45:41;5.43;;;1.77;;
41572;SDS011;27286;47.870;19.006;2022-11-03T08:48:06;3.40;;;1.27;;
41572;SDS011;27286;47.870;19.006;2022-11-03T08:50:32;3.13;;;1.25;;
41572;SDS011;27286;47.870;19.006;2022-11-03T08:52:57;10.75;;;4.50;;
41572;SDS011;27286;47.870;19.006;2022-11-03T08:55:22;14.27;;;5.40;;
41572;SDS011;27286;47.870;19.006;2022-11-03T08:57:48;12.57;;;5.68;;
41572;SDS011;27286;47.870;19.006;2022-11-03T09:00:13;10.52;;;4.95;;
41572;SDS011;27286;47.870;19.006;2022-11-03T09:02:41;15.98;;;6.22;;
41572;SDS011;27286;47.870;19.006;2022-11-03T09:05:07;18.05;;;7.50;;
41572;SDS011;27286;47.870;19.006;2022-11-03T09:07:33;20.83;;;8.23;;
41572;SDS011;27286;47.870;19.006;2022-11-03T09:09:58;20.60;;;8.85;;
41572;SDS011;27286;47.870;19.006;2022-11-03T09:12:24;22.90;;;10.80;;
41572;SDS011;27286;47.870;19.006;2022-11-03T09:14:49;29.35;;;10.35;;
41572;SDS011;27286;47.870;19.006;2022-11-03T09:17:15;22.20;;;9.30;;
41572;SDS011;27286;47.870;19.006;2022-11-03T09:19:40;24.08;;;10.60;;
41572;SDS011;27286;47.870;19.006;2022-11-03T09:22:05;22.60;;;8.93;;
41572;SDS011;27286;47.870;19.006;2022-11-03T09:24:31;25.40;;;10.80;;
41572;SDS011;27286;47.870;19.006;2022-11-03T09:26:56;22.95;;;10.73;;
41572;SDS011;27286;47.870;19.006;2022-11-03T09:29:21;23.95;;;11.75;;
41572;SDS011;27286;47.870;19.006;2022-11-03T09:31:47;23.63;;;10.45;;
41572;SDS011;27286;47.870;19.006;2022-11-03T09:34:12;23.80;;;10.85;;
41572;SDS011;27286;47.870;19.006;2022-11-03T09:36:38;22.42;;;10.38;;
41572;SDS011;27286;47.870;19.006;2022-11-03T09:39:04;23.65;;;10.88;;
41572;SDS011;27286;47.870;19.006;2022-11-03T09:41:29;19.63;;;10.68;;
41572;SDS011;27286;47.870;19.006;2022-11-03T09:43:56;25.35;;;12.07;;
41572;SDS011;27286;47.870;19.006;2022-11-03T09:46:22;25.02;;;12.45;;
41572;SDS011;27286;47.870;19.006;2022-11-03T09:48:49;25.45;;;11.20;;
41572;SDS011;27286;47.870;19.006;2022-11-03T09:51:19;19.70;;;10.30;;
41572;SDS011;27286;47.870;19.006;2022-11-03T09:53:46;24.15;;;11.80;;
41572;SDS011;27286;47.870;19.006;2022-11-03T09:56:12;25.33;;;11.93;;
41572;SDS011;27286;47.870;19.006;2022-11-03T09:58:37;23.05;;;11.80;;
41572;SDS011;27286;47.870;19.006;2022-11-03T10:01:04;26.52;;;11.60;;
41572;SDS011;27286;47.870;19.006;2022-11-03T10:03:30;22.48;;;10.02;;
41572;SDS011;27286;47.870;19.006;2022-11-03T10:05:55;21.33;;;10.23;;
41572;SDS011;27286;47.870;19.006;2022-11-03T10:08:22;19.52;;;10.05;;
41572;SDS011;27286;47.870;19.006;2022-11-03T10:10:50;23.75;;;12.90;;
41572;SDS011;27286;47.870;19.006;2022-11-03T10:13:20;26.63;;;13.07;;
41572;SDS011;27286;47.870;19.006;2022-11-03T10:15:50;27.95;;;12.45;;
41572;SDS011;27286;47.870;19.006;2022-11-03T10:18:16;22.40;;;11.70;;
41572;SDS011;27286;47.870;19.006;2022-11-03T10:20:43;22.42;;;11.07;;
41572;SDS011;27286;47.870;19.006;2022-11-03T10:23:08;27.15;;;11.70;;
41572;SDS011;27286;47.870;19.006;2022-11-03T10:25:35;24.92;;;11.65;;
41572;SDS011;27286;47.870;19.006;2022-11-03T10:28:10;20.60;;;11.25;;
41572;SDS011;27286;47.870;19.006;2022-11-03T10:33:28;26.77;;;13.23;;
41572;SDS011;27286;47.870;19.006;2022-11-03T10:35:56;23.52;;;12.43;;
41572;SDS011;27286;47.870;19.006;2022-11-03T10:40:55;25.70;;;12.35;;
41572;SDS011;27286;47.870;19.006;2022-11-03T10:43:33;26.27;;;11.88;;
41572;SDS011;27286;47.870;19.006;2022-11-03T10:51:34;25.00;;;12.85;;
41572;SDS011;27286;47.870;19.006;2022-11-03T10:54:01;27.15;;;13.80;;
41572;SDS011;27286;47.870;19.006;2022-11-03T10:56:27;25.67;;;12.57;;
41572;SDS011;27286;47.870;19.006;2022-11-03T10:58:54;34.92;;;14.27;;
41572;SDS011;27286;47.870;19.006;2022-11-03T11:01:22;29.60;;;14.23;;
41572;SDS011;27286;47.870;19.006;2022-11-03T11:03:47;26.52;;;12.77;;
41572;SDS011;27286;47.870;19.006;2022-11-03T11:06:26;24.63;;;12.57;;
41572;SDS011;27286;47.870;19.006;2022-11-03T11:08:54;23.08;;;11.35;;
41572;SDS011;27286;47.870;19.006;2022-11-03T11:11:29;27.55;;;11.98;;
41572;SDS011;27286;47.870;19.006;2022-11-03T11:16:57;21.08;;;11.57;;
41572;SDS011;27286;47.870;19.006;2022-11-03T11:19:23;20.63;;;11.88;;
41572;SDS011;27286;47.870;19.006;2022-11-03T11:37:49;24.77;;;12.68;;
41572;SDS011;27286;47.870;19.006;2022-11-03T11:43:34;24.42;;;13.57;;
41572;SDS011;27286;47.870;19.006;2022-11-03T11:48:38;25.67;;;12.63;;
41572;SDS011;27286;47.870;19.006;2022-11-03T11:51:07;24.75;;;12.75;;
41572;SDS011;27286;47.870;19.006;2022-11-03T11:53:38;31.73;;;13.70;;
41572;SDS011;27286;47.870;19.006;2022-11-03T11:56:07;26.40;;;13.43;;
41572;SDS011;27286;47.870;19.006;2022-11-03T11:58:45;24.75;;;12.80;;
41572;SDS011;27286;47.870;19.006;2022-11-03T12:03:58;25.38;;;13.82;;
41572;SDS011;27286;47.870;19.006;2022-11-03T12:06:36;26.95;;;13.10;;
41572;SDS011;27286;47.870;19.006;2022-11-03T12:09:04;27.20;;;12.80;;
41572;SDS011;27286;47.870;19.006;2022-11-03T12:11:45;29.40;;;14.60;;
41572;SDS011;27286;47.870;19.006;2022-11-03T12:14:34;24.85;;;13.65;;
41572;SDS011;27286;47.870;19.006;2022-11-03T12:29:47;21.65;;;12.52;;
41572;SDS011;27286;47.870;19.006;2022-11-03T12:32:13;20.65;;;12.80;;
41572;SDS011;27286;47.870;19.006;2022-11-03T12:34:39;23.98;;;12.82;;
41572;SDS011;27286;47.870;19.006;2022-11-03T12:37:04;23.38;;;12.45;;
41572;SDS011;27286;47.870;19.006;2022-11-03T12:39:30;27.63;;;13.55;;
41572;SDS011;27286;47.870;19.006;2022-11-03T12:41:55;22.52;;;12.00;;
41572;SDS011;27286;47.870;19.006;2022-11-03T12:44:20;26.42;;;12.35;;
41572;SDS011;27286;47.870;19.006;2022-11-03T12:46:46;27.17;;;13.05;;
41572;SDS011;27286;47.870;19.006;2022-11-03T12:49:11;32.30;;;15.55;;
41572;SDS011;27286;47.870;19.006;2022-11-03T12:51:36;29.15;;;14.48;;
41572;SDS011;27286;47.870;19.006;2022-11-03T12:54:02;31.48;;;15.05;;
41572;SDS011;27286;47.870;19.006;2022-11-03T12:56:27;29.27;;;15.80;;
41572;SDS011;27286;47.870;19.006;2022-11-03T12:58:53;25.25;;;13.48;;
41572;SDS011;27286;47.870;19.006;2022-11-03T13:01:18;24.38;;;13.95;;
41572;SDS011;27286;47.870;19.006;2022-11-03T13:03:43;27.13;;;14.63;;
41572;SDS011;27286;47.870;19.006;2022-11-03T13:06:09;24.10;;;13.60;;
41572;SDS011;27286;47.870;19.006;2022-11-03T13:08:42;24.75;;;13.82;;
41572;SDS011;27286;47.870;19.006;2022-11-03T13:11:07;25.15;;;14.23;;
41572;SDS011;27286;47.870;19.006;2022-11-03T13:13:53;31.15;;;14.90;;
41572;SDS011;27286;47.870;19.006;2022-11-03T13:16:19;30.48;;;14.75;;
41572;SDS011;27286;47.870;19.006;2022-11-03T13:18:45;28.27;;;14.43;;
41572;SDS011;27286;47.870;19.006;2022-11-03T13:21:10;25.05;;;13.32;;
41572;SDS011;27286;47.870;19.006;2022-11-03T13:23:37;31.75;;;13.55;;
41572;SDS011;27286;47.870;19.006;2022-11-03T13:26:03;31.20;;;13.57;;
41572;SDS011;27286;47.870;19.006;2022-11-03T13:28:28;25.27;;;12.80;;
41572;SDS011;27286;47.870;19.006;2022-11-03T13:30:53;22.13;;;12.10;;
41572;SDS011;27286;47.870;19.006;2022-11-03T13:33:19;26.40;;;13.00;;
41572;SDS011;27286;47.870;19.006;2022-11-03T13:35:44;25.20;;;13.90;;
41572;SDS011;27286;47.870;19.006;2022-11-03T13:38:09;25.38;;;13.55;;
41572;SDS011;27286;47.870;19.006;2022-11-03T13:40:35;27.50;;;14.30;;
41572;SDS011;27286;47.870;19.006;2022-11-03T13:43:00;26.52;;;13.65;;
41572;SDS011;27286;47.870;19.006;2022-11-03T13:45:26;22.25;;;12.00;;
41572;SDS011;27286;47.870;19.006;2022-11-03T13:47:51;22.98;;;12.40;;
41572;SDS011;27286;47.870;19.006;2022-11-03T13:50:17;24.10;;;11.13;;
41572;SDS011;27286;47.870;19.006;2022-11-03T13:52:42;23.98;;;11.90;;
41572;SDS011;27286;47.870;19.006;2022-11-03T13:55:08;23.88;;;13.23;;
41572;SDS011;27286;47.870;19.006;2022-11-03T13:57:35;25.50;;;13.70;;
41572;SDS011;27286;47.870;19.006;2022-11-03T14:00:02;26.58;;;12.80;;
41572;SDS011;27286;47.870;19.006;2022-11-03T14:02:29;31.35;;;13.52;;
41572;SDS011;27286;47.870;19.006;2022-11-03T14:04:54;33.47;;;14.05;;
41572;SDS011;27286;47.870;19.006;2022-11-03T14:07:19;30.17;;;14.68;;
41572;SDS011;27286;47.870;19.006;2022-11-03T14:09:45;29.35;;;14.50;;
41572;SDS011;27286;47.870;19.006;2022-11-03T14:12:10;29.58;;;14.38;;
41572;SDS011;27286;47.870;19.006;2022-11-03T14:14:54;34.03;;;15.02;;
41572;SDS011;27286;47.870;19.006;2022-11-03T14:17:20;34.20;;;16.38;;
41572;SDS011;27286;47.870;19.006;2022-11-03T14:19:45;28.58;;;13.38;;
41572;SDS011;27286;47.870;19.006;2022-11-03T14:22:11;37.35;;;15.70;;
41572;SDS011;27286;47.870;19.006;2022-11-03T14:24:36;28.30;;;14.40;;
41572;SDS011;27286;47.870;19.006;2022-11-03T14:27:01;30.85;;;13.35;;
41572;SDS011;27286;47.870;19.006;2022-11-03T14:29:27;26.63;;;13.65;;
41572;SDS011;27286;47.870;19.006;2022-11-03T14:31:52;32.10;;;13.23;;
41572;SDS011;27286;47.870;19.006;2022-11-03T14:34:18;31.58;;;13.30;;
41572;SDS011;27286;47.870;19.006;2022-11-03T14:36:44;30.40;;;13.00;;
41572;SDS011;27286;47.870;19.006;2022-11-03T14:39:09;27.63;;;12.38;;
41572;SDS011;27286;47.870;19.006;2022-11-03T14:41:34;32.78;;;13.98;;
41572;SDS011;27286;47.870;19.006;2022-11-03T14:44:18;32.30;;;12.93;;
41572;SDS011;27286;47.870;19.006;2022-11-03T14:46:44;28.08;;;13.73;;
41572;SDS011;27286;47.870;19.006;2022-11-03T14:49:09;29.67;;;14.43;;
41572;SDS011;27286;47.870;19.006;2022-11-03T14:51:34;24.60;;;12.52;;
41572;SDS011;27286;47.870;19.006;2022-11-03T14:54:00;24.65;;;13.00;;
41572;SDS011;27286;47.870;19.006;2022-11-03T14:56:25;29.42;;;12.93;;
41572;SDS011;27286;47.870;19.006;2022-11-03T14:58:51;26.00;;;13.18;;
41572;SDS011;27286;47.870;19.006;2022-11-03T15:01:16;27.58;;;12.60;;
41572;SDS011;27286;47.870;19.006;2022-11-03T15:03:43;29.65;;;13.52;;
41572;SDS011;27286;47.870;19.006;2022-11-03T15:06:08;24.88;;;13.88;;
41572;SDS011;27286;47.870;19.006;2022-11-03T15:08:35;26.35;;;12.73;;
41572;SDS011;27286;47.870;19.006;2022-11-03T15:11:01;24.80;;;13.40;;
41572;SDS011;27286;47.870;19.006;2022-11-03T15:13:29;25.85;;;13.00;;
41572;SDS011;27286;47.870;19.006;2022-11-03T15:15:54;27.67;;;13.60;;
41572;SDS011;27286;47.870;19.006;2022-11-03T15:18:19;28.35;;;13.15;;
41572;SDS011;27286;47.870;19.006;2022-11-03T15:20:45;28.50;;;14.40;;
41572;SDS011;27286;47.870;19.006;2022-11-03T15:23:10;24.23;;;12.98;;
41572;SDS011;27286;47.870;19.006;2022-11-03T15:25:36;28.38;;;13.35;;
41572;SDS011;27286;47.870;19.006;2022-11-03T15:28:01;23.60;;;12.18;;
41572;SDS011;27286;47.870;19.006;2022-11-03T15:30:26;25.45;;;13.45;;
41572;SDS011;27286;47.870;19.006;2022-11-03T15:32:52;29.15;;;13.73;;
41572;SDS011;27286;47.870;19.006;2022-11-03T15:35:17;22.70;;;12.88;;
41572;SDS011;27286;47.870;19.006;2022-11-03T15:37:43;21.23;;;12.73;;
41572;SDS011;27286;47.870;19.006;2022-11-03T15:40:10;20.05;;;11.57;;
41572;SDS011;27286;47.870;19.006;2022-11-03T15:42:37;29.50;;;14.60;;
41572;SDS011;27286;47.870;19.006;2022-11-03T15:45:03;23.52;;;11.02;;
41572;SDS011;27286;47.870;19.006;2022-11-03T15:47:29;19.38;;;11.73;;
41572;SDS011;27286;47.870;19.006;2022-11-03T15:49:55;21.98;;;11.68;;
41572;SDS011;27286;47.870;19.006;2022-11-03T15:52:20;24.23;;;13.05;;
41572;SDS011;27286;47.870;19.006;2022-11-03T15:54:46;24.10;;;12.95;;
41572;SDS011;27286;47.870;19.006;2022-11-03T15:57:12;20.60;;;12.85;;
41572;SDS011;27286;47.870;19.006;2022-11-03T15:59:38;24.33;;;15.40;;
41572;SDS011;27286;47.870;19.006;2022-11-03T16:02:04;23.08;;;14.43;;
41572;SDS011;27286;47.870;19.006;2022-11-03T16:04:30;21.52;;;12.68;;
41572;SDS011;27286;47.870;19.006;2022-11-03T16:06:55;25.65;;;12.35;;
41572;SDS011;27286;47.870;19.006;2022-11-03T16:09:20;20.90;;;11.02;;
41572;SDS011;27286;47.870;19.006;2022-11-03T16:11:46;22.45;;;11.80;;